sensor_id;sensor_type;location;lat;lon;timestamp;P1;durP1;ratioP1;P2;durP2;ratioP2
78489;SDS011;67776;52.012;4.736;2024-01-30T00:02:15;29.15;;;16.42;;
78489;SDS011;67776;52.012;4.736;2024-01-30T00:04:40;28.57;;;16.00;;
78489;SDS011;67776;52.012;4.736;2024-01-30T00:07:05;29.08;;;15.90;;
78489;SDS011;67776;52.012;4.736;2024-01-30T00:09:31;28.73;;;15.60;;
78489;SDS011;67776;52.012;4.736;2024-01-30T00:11:56;30.20;;;16.63;;
78489;SDS011;67776;52.012;4.736;2024-01-30T00:14:22;28.48;;;15.48;;
78489;SDS011;67776;52.012;4.736;2024-01-30T00:16:48;29.70;;;15.67;;
78489;SDS011;67776;52.012;4.736;2024-01-30T00:19:13;31.42;;;15.93;;
78489;SDS011;67776;52.012;4.736;2024-01-30T00:21:39;28.90;;;15.40;;
78489;SDS011;67776;52.012;4.736;2024-01-30T00:24:04;33.03;;;15.47;;
78489;SDS011;67776;52.012;4.736;2024-01-30T00:26:30;27.53;;;14.63;;
78489;SDS011;67776;52.012;4.736;2024-01-30T00:28:55;26.70;;;14.60;;
78489;SDS011;67776;52.012;4.736;2024-01-30T00:31:20;27.57;;;14.57;;
78489;SDS011;67776;52.012;4.736;2024-01-30T00:33:46;29.13;;;14.77;;
78489;SDS011;67776;52.012;4.736;2024-01-30T00:36:11;27.47;;;14.90;;
78489;SDS011;67776;52.012;4.736;2024-01-30T00:38:37;25.93;;;14.23;;
78489;SDS011;67776;52.012;4.736;2024-01-30T00:41:02;24.98;;;13.98;;
78489;SDS011;67776;52.012;4.736;2024-01-30T00:43:28;26.07;;;14.33;;
78489;SDS011;67776;52.012;4.736;2024-01-30T00:45:53;25.50;;;13.97;;
78489;SDS011;67776;52.012;4.736;2024-01-30T00:48:19;24.63;;;13.85;;
78489;SDS011;67776;52.012;4.736;2024-01-30T00:50:44;24.30;;;13.43;;
78489;SDS011;67776;52.012;4.736;2024-01-30T00:53:09;26.60;;;14.47;;
78489;SDS011;67776;52.012;4.736;2024-01-30T00:55:35;26.23;;;13.40;;
78489;SDS011;67776;52.012;4.736;2024-01-30T00:58:00;25.80;;;14.30;;
78489;SDS011;67776;52.012;4.736;2024-01-30T01:00:26;28.53;;;14.70;;
78489;SDS011;67776;52.012;4.736;2024-01-30T01:02:54;24.40;;;13.63;;
78489;SDS011;67776;52.012;4.736;2024-01-30T01:05:20;26.65;;;13.32;;
78489;SDS011;67776;52.012;4.736;2024-01-30T01:07:45;21.17;;;12.07;;
78489;SDS011;67776;52.012;4.736;2024-01-30T01:10:12;25.85;;;13.10;;
78489;SDS011;67776;52.012;4.736;2024-01-30T01:12:38;23.63;;;13.17;;
78489;SDS011;67776;52.012;4.736;2024-01-30T01:15:04;24.02;;;13.15;;
78489;SDS011;67776;52.012;4.736;2024-01-30T01:17:30;23.30;;;13.38;;
78489;SDS011;67776;52.012;4.736;2024-01-30T01:19:56;23.70;;;13.27;;
78489;SDS011;67776;52.012;4.736;2024-01-30T01:22:22;24.42;;;12.70;;
78489;SDS011;67776;52.012;4.736;2024-01-30T01:24:47;26.07;;;13.40;;
78489;SDS011;67776;52.012;4.736;2024-01-30T01:27:13;22.17;;;12.53;;
78489;SDS011;67776;52.012;4.736;2024-01-30T01:29:38;24.13;;;13.50;;
78489;SDS011;67776;52.012;4.736;2024-01-30T01:32:04;23.75;;;13.43;;
78489;SDS011;67776;52.012;4.736;2024-01-30T01:34:29;23.90;;;12.73;;
78489;SDS011;67776;52.012;4.736;2024-01-30T01:36:55;21.67;;;11.87;;
78489;SDS011;67776;52.012;4.736;2024-01-30T01:39:20;22.70;;;12.60;;
78489;SDS011;67776;52.012;4.736;2024-01-30T01:41:47;26.65;;;12.40;;
78489;SDS011;67776;52.012;4.736;2024-01-30T01:44:13;24.15;;;12.43;;
78489;SDS011;67776;52.012;4.736;2024-01-30T01:46:38;25.50;;;13.13;;
78489;SDS011;67776;52.012;4.736;2024-01-30T01:49:04;21.97;;;12.47;;
78489;SDS011;67776;52.012;4.736;2024-01-30T01:51:30;25.45;;;12.93;;
78489;SDS011;67776;52.012;4.736;2024-01-30T01:53:58;25.55;;;12.95;;
78489;SDS011;67776;52.012;4.736;2024-01-30T01:56:27;23.52;;;12.75;;
78489;SDS011;67776;52.012;4.736;2024-01-30T01:58:54;23.20;;;12.50;;
78489;SDS011;67776;52.012;4.736;2024-01-30T02:01:20;22.50;;;12.30;;
78489;SDS011;67776;52.012;4.736;2024-01-30T02:03:46;24.40;;;12.90;;
78489;SDS011;67776;52.012;4.736;2024-01-30T02:06:13;24.67;;;12.43;;
78489;SDS011;67776;52.012;4.736;2024-01-30T02:08:39;24.27;;;12.88;;
78489;SDS011;67776;52.012;4.736;2024-01-30T02:11:05;28.57;;;14.00;;
78489;SDS011;67776;52.012;4.736;2024-01-30T02:13:30;25.53;;;12.67;;
78489;SDS011;67776;52.012;4.736;2024-01-30T02:15:56;21.53;;;12.43;;
78489;SDS011;67776;52.012;4.736;2024-01-30T02:18:24;24.73;;;12.70;;
78489;SDS011;67776;52.012;4.736;2024-01-30T02:20:50;24.37;;;12.27;;
78489;SDS011;67776;52.012;4.736;2024-01-30T02:23:19;23.63;;;12.00;;
78489;SDS011;67776;52.012;4.736;2024-01-30T02:25:45;26.50;;;12.77;;
78489;SDS011;67776;52.012;4.736;2024-01-30T02:28:11;24.63;;;12.87;;
78489;SDS011;67776;52.012;4.736;2024-01-30T02:30:37;25.17;;;12.63;;
78489;SDS011;67776;52.012;4.736;2024-01-30T02:33:03;20.85;;;11.85;;
78489;SDS011;67776;52.012;4.736;2024-01-30T02:35:28;22.73;;;12.40;;
78489;SDS011;67776;52.012;4.736;2024-01-30T02:37:54;22.40;;;11.97;;
78489;SDS011;67776;52.012;4.736;2024-01-30T02:40:19;21.53;;;12.07;;
78489;SDS011;67776;52.012;4.736;2024-01-30T02:42:45;22.38;;;11.70;;
78489;SDS011;67776;52.012;4.736;2024-01-30T02:45:10;20.67;;;11.40;;
78489;SDS011;67776;52.012;4.736;2024-01-30T02:47:36;20.33;;;11.40;;
78489;SDS011;67776;52.012;4.736;2024-01-30T02:50:01;23.25;;;12.20;;
78489;SDS011;67776;52.012;4.736;2024-01-30T02:52:27;23.37;;;12.37;;
78489;SDS011;67776;52.012;4.736;2024-01-30T02:54:52;23.90;;;11.70;;
78489;SDS011;67776;52.012;4.736;2024-01-30T02:57:17;20.57;;;11.93;;
78489;SDS011;67776;52.012;4.736;2024-01-30T02:59:43;25.27;;;12.57;;
78489;SDS011;67776;52.012;4.736;2024-01-30T03:02:08;22.63;;;12.13;;
78489;SDS011;67776;52.012;4.736;2024-01-30T03:04:33;22.67;;;12.82;;
78489;SDS011;67776;52.012;4.736;2024-01-30T03:06:59;21.90;;;11.80;;
78489;SDS011;67776;52.012;4.736;2024-01-30T03:09:24;24.47;;;11.70;;
78489;SDS011;67776;52.012;4.736;2024-01-30T03:11:49;23.40;;;12.07;;
78489;SDS011;67776;52.012;4.736;2024-01-30T03:14:15;23.77;;;12.07;;
78489;SDS011;67776;52.012;4.736;2024-01-30T03:16:40;22.97;;;12.40;;
78489;SDS011;67776;52.012;4.736;2024-01-30T03:19:06;21.23;;;11.70;;
78489;SDS011;67776;52.012;4.736;2024-01-30T03:21:35;21.95;;;12.43;;
78489;SDS011;67776;52.012;4.736;2024-01-30T03:24:00;24.03;;;12.10;;
78489;SDS011;67776;52.012;4.736;2024-01-30T03:26:25;21.23;;;12.20;;
78489;SDS011;67776;52.012;4.736;2024-01-30T03:28:51;23.80;;;11.57;;
78489;SDS011;67776;52.012;4.736;2024-01-30T03:31:16;22.63;;;12.00;;
78489;SDS011;67776;52.012;4.736;2024-01-30T03:33:42;21.58;;;11.77;;
78489;SDS011;67776;52.012;4.736;2024-01-30T03:36:08;20.50;;;11.90;;
78489;SDS011;67776;52.012;4.736;2024-01-30T03:38:34;21.67;;;11.93;;
78489;SDS011;67776;52.012;4.736;2024-01-30T03:41:00;22.27;;;11.67;;
78489;SDS011;67776;52.012;4.736;2024-01-30T03:43:25;21.83;;;11.50;;
78489;SDS011;67776;52.012;4.736;2024-01-30T03:45:50;23.47;;;11.43;;
78489;SDS011;67776;52.012;4.736;2024-01-30T03:48:16;23.63;;;11.73;;
78489;SDS011;67776;52.012;4.736;2024-01-30T03:50:41;19.70;;;10.90;;
78489;SDS011;67776;52.012;4.736;2024-01-30T03:53:07;24.00;;;11.70;;
78489;SDS011;67776;52.012;4.736;2024-01-30T03:55:32;21.27;;;11.63;;
78489;SDS011;67776;52.012;4.736;2024-01-30T03:57:57;23.73;;;11.30;;
78489;SDS011;67776;52.012;4.736;2024-01-30T04:00:23;23.37;;;11.27;;
78489;SDS011;67776;52.012;4.736;2024-01-30T04:02:48;21.97;;;11.17;;
78489;SDS011;67776;52.012;4.736;2024-01-30T04:05:13;24.30;;;12.50;;
78489;SDS011;67776;52.012;4.736;2024-01-30T04:07:39;22.20;;;11.50;;
78489;SDS011;67776;52.012;4.736;2024-01-30T04:10:04;23.73;;;11.87;;
78489;SDS011;67776;52.012;4.736;2024-01-30T04:12:31;20.17;;;11.48;;
78489;SDS011;67776;52.012;4.736;2024-01-30T04:14:56;22.20;;;12.00;;
78489;SDS011;67776;52.012;4.736;2024-01-30T04:17:22;21.75;;;11.63;;
78489;SDS011;67776;52.012;4.736;2024-01-30T04:19:47;22.20;;;11.37;;
78489;SDS011;67776;52.012;4.736;2024-01-30T04:22:12;22.73;;;11.13;;
78489;SDS011;67776;52.012;4.736;2024-01-30T04:24:38;22.07;;;11.37;;
78489;SDS011;67776;52.012;4.736;2024-01-30T04:27:03;22.97;;;12.00;;
78489;SDS011;67776;52.012;4.736;2024-01-30T04:29:29;20.80;;;11.98;;
78489;SDS011;67776;52.012;4.736;2024-01-30T04:31:54;21.27;;;11.77;;
78489;SDS011;67776;52.012;4.736;2024-01-30T04:34:19;22.53;;;12.13;;
78489;SDS011;67776;52.012;4.736;2024-01-30T04:36:45;21.37;;;11.60;;
78489;SDS011;67776;52.012;4.736;2024-01-30T04:39:11;23.65;;;12.23;;
78489;SDS011;67776;52.012;4.736;2024-01-30T04:41:37;24.17;;;11.82;;
78489;SDS011;67776;52.012;4.736;2024-01-30T04:44:03;25.57;;;12.13;;
78489;SDS011;67776;52.012;4.736;2024-01-30T04:46:28;23.87;;;11.93;;
78489;SDS011;67776;52.012;4.736;2024-01-30T04:48:53;23.47;;;11.70;;
78489;SDS011;67776;52.012;4.736;2024-01-30T04:51:19;21.87;;;11.70;;
78489;SDS011;67776;52.012;4.736;2024-01-30T04:53:44;22.77;;;11.67;;
78489;SDS011;67776;52.012;4.736;2024-01-30T04:56:09;23.60;;;12.40;;
78489;SDS011;67776;52.012;4.736;2024-01-30T04:58:35;22.57;;;12.07;;
78489;SDS011;67776;52.012;4.736;2024-01-30T05:01:01;24.00;;;11.90;;
78489;SDS011;67776;52.012;4.736;2024-01-30T05:03:27;24.33;;;12.65;;
78489;SDS011;67776;52.012;4.736;2024-01-30T05:05:52;21.67;;;11.73;;
78489;SDS011;67776;52.012;4.736;2024-01-30T05:08:17;22.90;;;12.27;;
78489;SDS011;67776;52.012;4.736;2024-01-30T05:10:43;23.48;;;11.98;;
78489;SDS011;67776;52.012;4.736;2024-01-30T05:13:08;23.70;;;12.20;;
78489;SDS011;67776;52.012;4.736;2024-01-30T05:15:34;19.33;;;11.07;;
78489;SDS011;67776;52.012;4.736;2024-01-30T05:17:59;22.93;;;11.83;;
78489;SDS011;67776;52.012;4.736;2024-01-30T05:20:24;23.33;;;11.43;;
78489;SDS011;67776;52.012;4.736;2024-01-30T05:22:52;21.27;;;11.52;;
78489;SDS011;67776;52.012;4.736;2024-01-30T05:25:18;20.00;;;11.30;;
78489;SDS011;67776;52.012;4.736;2024-01-30T05:27:44;23.17;;;11.43;;
78489;SDS011;67776;52.012;4.736;2024-01-30T05:30:09;21.70;;;12.00;;
78489;SDS011;67776;52.012;4.736;2024-01-30T05:32:35;22.17;;;11.48;;
78489;SDS011;67776;52.012;4.736;2024-01-30T05:35:00;26.37;;;11.67;;
78489;SDS011;67776;52.012;4.736;2024-01-30T05:37:26;21.43;;;11.50;;
78489;SDS011;67776;52.012;4.736;2024-01-30T05:39:51;21.83;;;11.73;;
78489;SDS011;67776;52.012;4.736;2024-01-30T05:42:17;22.33;;;11.67;;
78489;SDS011;67776;52.012;4.736;2024-01-30T05:44:42;18.63;;;10.52;;
78489;SDS011;67776;52.012;4.736;2024-01-30T05:47:07;20.33;;;10.60;;
78489;SDS011;67776;52.012;4.736;2024-01-30T05:49:33;19.00;;;10.40;;
78489;SDS011;67776;52.012;4.736;2024-01-30T05:51:59;21.05;;;11.52;;
78489;SDS011;67776;52.012;4.736;2024-01-30T05:54:25;19.70;;;10.77;;
78489;SDS011;67776;52.012;4.736;2024-01-30T05:56:50;21.40;;;11.50;;
78489;SDS011;67776;52.012;4.736;2024-01-30T05:59:15;19.70;;;10.57;;
78489;SDS011;67776;52.012;4.736;2024-01-30T06:01:47;18.37;;;10.93;;
78489;SDS011;67776;52.012;4.736;2024-01-30T06:04:13;22.03;;;10.97;;
78489;SDS011;67776;52.012;4.736;2024-01-30T06:06:39;21.00;;;11.25;;
78489;SDS011;67776;52.012;4.736;2024-01-30T06:09:05;22.63;;;11.50;;
78489;SDS011;67776;52.012;4.736;2024-01-30T06:11:31;19.40;;;10.73;;
78489;SDS011;67776;52.012;4.736;2024-01-30T06:13:58;20.98;;;10.75;;
78489;SDS011;67776;52.012;4.736;2024-01-30T06:16:24;21.73;;;10.63;;
78489;SDS011;67776;52.012;4.736;2024-01-30T06:18:49;20.50;;;11.27;;
78489;SDS011;67776;52.012;4.736;2024-01-30T06:21:14;21.00;;;10.53;;
78489;SDS011;67776;52.012;4.736;2024-01-30T06:23:39;20.77;;;11.40;;
78489;SDS011;67776;52.012;4.736;2024-01-30T06:26:06;22.40;;;11.07;;
78489;SDS011;67776;52.012;4.736;2024-01-30T06:28:32;19.15;;;11.15;;
78489;SDS011;67776;52.012;4.736;2024-01-30T06:30:57;22.80;;;11.67;;
78489;SDS011;67776;52.012;4.736;2024-01-30T06:33:22;19.90;;;11.68;;
78489;SDS011;67776;52.012;4.736;2024-01-30T06:35:48;20.17;;;10.90;;
78489;SDS011;67776;52.012;4.736;2024-01-30T06:38:13;24.70;;;11.27;;
78489;SDS011;67776;52.012;4.736;2024-01-30T06:40:40;19.92;;;10.77;;
78489;SDS011;67776;52.012;4.736;2024-01-30T06:43:06;21.93;;;11.00;;
78489;SDS011;67776;52.012;4.736;2024-01-30T06:45:32;19.85;;;11.10;;
78489;SDS011;67776;52.012;4.736;2024-01-30T06:47:59;20.65;;;11.43;;
78489;SDS011;67776;52.012;4.736;2024-01-30T06:50:24;20.87;;;10.97;;
78489;SDS011;67776;52.012;4.736;2024-01-30T06:52:50;19.92;;;11.13;;
78489;SDS011;67776;52.012;4.736;2024-01-30T06:55:16;21.10;;;10.90;;
78489;SDS011;67776;52.012;4.736;2024-01-30T06:57:41;19.60;;;10.50;;
78489;SDS011;67776;52.012;4.736;2024-01-30T07:00:07;18.63;;;10.67;;
78489;SDS011;67776;52.012;4.736;2024-01-30T07:02:32;21.00;;;11.00;;
78489;SDS011;67776;52.012;4.736;2024-01-30T07:04:58;21.30;;;10.83;;
78489;SDS011;67776;52.012;4.736;2024-01-30T07:07:23;19.08;;;10.52;;
78489;SDS011;67776;52.012;4.736;2024-01-30T07:09:49;20.03;;;10.53;;
78489;SDS011;67776;52.012;4.736;2024-01-30T07:12:17;19.65;;;11.02;;
78489;SDS011;67776;52.012;4.736;2024-01-30T07:14:42;19.90;;;10.97;;
78489;SDS011;67776;52.012;4.736;2024-01-30T07:17:08;18.63;;;10.60;;
78489;SDS011;67776;52.012;4.736;2024-01-30T07:19:33;23.33;;;11.40;;
78489;SDS011;67776;52.012;4.736;2024-01-30T07:21:59;22.17;;;10.93;;
78489;SDS011;67776;52.012;4.736;2024-01-30T07:24:25;21.08;;;11.15;;
78489;SDS011;67776;52.012;4.736;2024-01-30T07:26:50;21.03;;;11.00;;
78489;SDS011;67776;52.012;4.736;2024-01-30T07:29:16;20.20;;;10.97;;
78489;SDS011;67776;52.012;4.736;2024-01-30T07:31:41;20.77;;;10.83;;
78489;SDS011;67776;52.012;4.736;2024-01-30T07:34:07;19.70;;;11.40;;
78489;SDS011;67776;52.012;4.736;2024-01-30T07:36:32;23.45;;;11.32;;
78489;SDS011;67776;52.012;4.736;2024-01-30T07:38:57;21.57;;;10.50;;
78489;SDS011;67776;52.012;4.736;2024-01-30T07:41:23;21.63;;;11.53;;
78489;SDS011;67776;52.012;4.736;2024-01-30T07:43:50;20.27;;;10.93;;
78489;SDS011;67776;52.012;4.736;2024-01-30T07:46:15;21.83;;;10.73;;
78489;SDS011;67776;52.012;4.736;2024-01-30T07:48:41;22.40;;;10.87;;
78489;SDS011;67776;52.012;4.736;2024-01-30T07:51:06;22.37;;;10.83;;
78489;SDS011;67776;52.012;4.736;2024-01-30T07:53:31;18.92;;;10.02;;
78489;SDS011;67776;52.012;4.736;2024-01-30T07:55:57;19.77;;;10.40;;
78489;SDS011;67776;52.012;4.736;2024-01-30T07:58:22;16.80;;;9.63;;
78489;SDS011;67776;52.012;4.736;2024-01-30T08:00:48;19.45;;;9.93;;
78489;SDS011;67776;52.012;4.736;2024-01-30T08:03:14;18.97;;;10.20;;
78489;SDS011;67776;52.012;4.736;2024-01-30T08:05:41;18.88;;;10.13;;
78489;SDS011;67776;52.012;4.736;2024-01-30T08:08:07;19.87;;;10.07;;
78489;SDS011;67776;52.012;4.736;2024-01-30T08:10:32;20.70;;;10.38;;
78489;SDS011;67776;52.012;4.736;2024-01-30T08:12:57;20.30;;;9.87;;
78489;SDS011;67776;52.012;4.736;2024-01-30T08:15:23;19.70;;;10.67;;
78489;SDS011;67776;52.012;4.736;2024-01-30T08:17:48;20.33;;;9.60;;
78489;SDS011;67776;52.012;4.736;2024-01-30T08:20:14;19.30;;;10.07;;
78489;SDS011;67776;52.012;4.736;2024-01-30T08:22:39;21.67;;;9.30;;
78489;SDS011;67776;52.012;4.736;2024-01-30T08:25:08;23.73;;;9.97;;
78489;SDS011;67776;52.012;4.736;2024-01-30T08:27:34;21.02;;;9.45;;
78489;SDS011;67776;52.012;4.736;2024-01-30T08:30:05;19.60;;;9.32;;
78489;SDS011;67776;52.012;4.736;2024-01-30T08:32:31;18.50;;;10.00;;
78489;SDS011;67776;52.012;4.736;2024-01-30T08:34:57;23.13;;;10.23;;
78489;SDS011;67776;52.012;4.736;2024-01-30T08:37:23;17.73;;;8.85;;
78489;SDS011;67776;52.012;4.736;2024-01-30T08:39:48;21.47;;;9.30;;
78489;SDS011;67776;52.012;4.736;2024-01-30T08:42:14;21.73;;;9.43;;
78489;SDS011;67776;52.012;4.736;2024-01-30T08:44:39;18.85;;;8.75;;
78489;SDS011;67776;52.012;4.736;2024-01-30T08:47:05;20.20;;;9.63;;
78489;SDS011;67776;52.012;4.736;2024-01-30T08:49:30;19.73;;;9.60;;
78489;SDS011;67776;52.012;4.736;2024-01-30T08:51:59;17.33;;;8.20;;
78489;SDS011;67776;52.012;4.736;2024-01-30T08:54:24;17.60;;;9.05;;
78489;SDS011;67776;52.012;4.736;2024-01-30T08:56:50;17.37;;;8.73;;
78489;SDS011;67776;52.012;4.736;2024-01-30T08:59:17;18.50;;;8.88;;
78489;SDS011;67776;52.012;4.736;2024-01-30T09:01:42;21.23;;;9.60;;
78489;SDS011;67776;52.012;4.736;2024-01-30T09:04:08;17.90;;;8.53;;
78489;SDS011;67776;52.012;4.736;2024-01-30T09:06:33;18.67;;;9.40;;
78489;SDS011;67776;52.012;4.736;2024-01-30T09:08:58;18.57;;;8.83;;
78489;SDS011;67776;52.012;4.736;2024-01-30T09:11:24;19.73;;;9.43;;
78489;SDS011;67776;52.012;4.736;2024-01-30T09:13:49;17.07;;;8.93;;
78489;SDS011;67776;52.012;4.736;2024-01-30T09:16:14;17.92;;;8.65;;
78489;SDS011;67776;52.012;4.736;2024-01-30T09:18:41;17.67;;;8.47;;
78489;SDS011;67776;52.012;4.736;2024-01-30T09:21:06;18.08;;;8.57;;
78489;SDS011;67776;52.012;4.736;2024-01-30T09:23:32;19.57;;;8.77;;
78489;SDS011;67776;52.012;4.736;2024-01-30T09:25:58;19.95;;;8.43;;
78489;SDS011;67776;52.012;4.736;2024-01-30T09:28:23;19.80;;;9.23;;
78489;SDS011;67776;52.012;4.736;2024-01-30T09:30:49;21.17;;;8.20;;
78489;SDS011;67776;52.012;4.736;2024-01-30T09:33:14;17.83;;;7.80;;
78489;SDS011;67776;52.012;4.736;2024-01-30T09:35:39;17.50;;;8.53;;
78489;SDS011;67776;52.012;4.736;2024-01-30T09:38:05;16.37;;;8.17;;
78489;SDS011;67776;52.012;4.736;2024-01-30T09:40:30;19.80;;;9.23;;
78489;SDS011;67776;52.012;4.736;2024-01-30T09:42:58;16.93;;;8.87;;
78489;SDS011;67776;52.012;4.736;2024-01-30T09:45:25;16.05;;;9.10;;
78489;SDS011;67776;52.012;4.736;2024-01-30T09:47:51;17.88;;;8.90;;
78489;SDS011;67776;52.012;4.736;2024-01-30T09:50:18;16.65;;;8.48;;
78489;SDS011;67776;52.012;4.736;2024-01-30T09:52:45;19.33;;;8.95;;
78489;SDS011;67776;52.012;4.736;2024-01-30T09:55:10;19.37;;;8.17;;
78489;SDS011;67776;52.012;4.736;2024-01-30T09:57:36;17.15;;;9.32;;
78489;SDS011;67776;52.012;4.736;2024-01-30T10:00:02;15.80;;;8.10;;
78489;SDS011;67776;52.012;4.736;2024-01-30T10:02:29;13.43;;;7.18;;
78489;SDS011;67776;52.012;4.736;2024-01-30T10:04:56;14.27;;;8.25;;
78489;SDS011;67776;52.012;4.736;2024-01-30T10:07:21;14.60;;;6.93;;
78489;SDS011;67776;52.012;4.736;2024-01-30T10:09:48;12.52;;;5.68;;
78489;SDS011;67776;52.012;4.736;2024-01-30T10:12:14;12.37;;;6.57;;
78489;SDS011;67776;52.012;4.736;2024-01-30T10:14:40;13.25;;;5.75;;
78489;SDS011;67776;52.012;4.736;2024-01-30T10:17:07;11.82;;;5.28;;
78489;SDS011;67776;52.012;4.736;2024-01-30T10:19:35;10.63;;;4.82;;
78489;SDS011;67776;52.012;4.736;2024-01-30T10:22:01;10.60;;;5.10;;
78489;SDS011;67776;52.012;4.736;2024-01-30T10:24:27;11.68;;;4.40;;
78489;SDS011;67776;52.012;4.736;2024-01-30T10:26:54;11.68;;;4.25;;
78489;SDS011;67776;52.012;4.736;2024-01-30T10:29:20;12.27;;;4.80;;
78489;SDS011;67776;52.012;4.736;2024-01-30T10:31:45;11.93;;;4.77;;
78489;SDS011;67776;52.012;4.736;2024-01-30T10:34:12;11.75;;;5.03;;
78489;SDS011;67776;52.012;4.736;2024-01-30T10:36:40;13.57;;;6.07;;
78489;SDS011;67776;52.012;4.736;2024-01-30T10:39:08;13.95;;;5.35;;
78489;SDS011;67776;52.012;4.736;2024-01-30T10:41:36;9.80;;;3.40;;
78489;SDS011;67776;52.012;4.736;2024-01-30T10:44:09;8.18;;;2.65;;
78489;SDS011;67776;52.012;4.736;2024-01-30T10:46:35;7.15;;;2.45;;
78489;SDS011;67776;52.012;4.736;2024-01-30T10:49:03;11.97;;;3.00;;
78489;SDS011;67776;52.012;4.736;2024-01-30T10:51:29;7.78;;;2.63;;
78489;SDS011;67776;52.012;4.736;2024-01-30T10:53:56;8.52;;;3.08;;
78489;SDS011;67776;52.012;4.736;2024-01-30T10:56:22;10.27;;;3.00;;
78489;SDS011;67776;52.012;4.736;2024-01-30T10:58:50;8.95;;;3.13;;
78489;SDS011;67776;52.012;4.736;2024-01-30T11:01:17;8.45;;;3.40;;
78489;SDS011;67776;52.012;4.736;2024-01-30T11:03:48;7.85;;;2.70;;
78489;SDS011;67776;52.012;4.736;2024-01-30T11:06:17;8.43;;;3.28;;
78489;SDS011;67776;52.012;4.736;2024-01-30T11:08:45;9.07;;;3.27;;
78489;SDS011;67776;52.012;4.736;2024-01-30T11:11:11;9.65;;;3.40;;
78489;SDS011;67776;52.012;4.736;2024-01-30T11:13:36;7.20;;;2.83;;
78489;SDS011;67776;52.012;4.736;2024-01-30T11:16:02;9.20;;;3.20;;
78489;SDS011;67776;52.012;4.736;2024-01-30T11:18:31;7.78;;;2.47;;
78489;SDS011;67776;52.012;4.736;2024-01-30T11:21:00;6.40;;;2.28;;
78489;SDS011;67776;52.012;4.736;2024-01-30T11:23:30;8.00;;;2.10;;
78489;SDS011;67776;52.012;4.736;2024-01-30T11:25:56;10.00;;;2.00;;
78489;SDS011;67776;52.012;4.736;2024-01-30T11:28:21;8.05;;;2.03;;
78489;SDS011;67776;52.012;4.736;2024-01-30T11:30:48;7.25;;;1.73;;
78489;SDS011;67776;52.012;4.736;2024-01-30T11:33:15;9.53;;;2.00;;
78489;SDS011;67776;52.012;4.736;2024-01-30T11:35:52;8.90;;;1.70;;
78489;SDS011;67776;52.012;4.736;2024-01-30T11:38:18;6.33;;;1.67;;
78489;SDS011;67776;52.012;4.736;2024-01-30T11:40:43;6.00;;;1.40;;
78489;SDS011;67776;52.012;4.736;2024-01-30T11:43:09;10.40;;;2.07;;
78489;SDS011;67776;52.012;4.736;2024-01-30T11:45:35;8.93;;;1.73;;
78489;SDS011;67776;52.012;4.736;2024-01-30T11:48:01;8.27;;;1.80;;
78489;SDS011;67776;52.012;4.736;2024-01-30T11:50:28;5.38;;;1.10;;
78489;SDS011;67776;52.012;4.736;2024-01-30T11:52:54;4.95;;;1.00;;
78489;SDS011;67776;52.012;4.736;2024-01-30T11:55:20;10.00;;;1.40;;
78489;SDS011;67776;52.012;4.736;2024-01-30T11:57:45;5.97;;;1.10;;
78489;SDS011;67776;52.012;4.736;2024-01-30T12:00:14;7.50;;;1.37;;
78489;SDS011;67776;52.012;4.736;2024-01-30T12:02:53;5.00;;;1.05;;
78489;SDS011;67776;52.012;4.736;2024-01-30T12:05:22;6.50;;;1.40;;
78489;SDS011;67776;52.012;4.736;2024-01-30T12:07:48;5.07;;;1.00;;
78489;SDS011;67776;52.012;4.736;2024-01-30T12:10:14;5.77;;;1.10;;
78489;SDS011;67776;52.012;4.736;2024-01-30T12:12:40;6.17;;;1.13;;
78489;SDS011;67776;52.012;4.736;2024-01-30T12:15:07;7.05;;;1.08;;
78489;SDS011;67776;52.012;4.736;2024-01-30T12:17:33;4.63;;;1.20;;
78489;SDS011;67776;52.012;4.736;2024-01-30T12:20:06;4.87;;;1.10;;
78489;SDS011;67776;52.012;4.736;2024-01-30T12:22:33;11.38;;;1.55;;
78489;SDS011;67776;52.012;4.736;2024-01-30T12:25:01;5.57;;;1.05;;
78489;SDS011;67776;52.012;4.736;2024-01-30T12:27:27;7.50;;;1.13;;
78489;SDS011;67776;52.012;4.736;2024-01-30T12:29:56;10.80;;;1.40;;
78489;SDS011;67776;52.012;4.736;2024-01-30T12:32:23;7.40;;;1.23;;
78489;SDS011;67776;52.012;4.736;2024-01-30T12:34:48;8.75;;;1.25;;
78489;SDS011;67776;52.012;4.736;2024-01-30T12:37:14;8.13;;;1.40;;
78489;SDS011;67776;52.012;4.736;2024-01-30T12:39:44;10.38;;;1.75;;
78489;SDS011;67776;52.012;4.736;2024-01-30T12:42:10;5.78;;;1.23;;
78489;SDS011;67776;52.012;4.736;2024-01-30T12:44:35;5.23;;;1.20;;
78489;SDS011;67776;52.012;4.736;2024-01-30T12:47:02;8.63;;;2.07;;
78489;SDS011;67776;52.012;4.736;2024-01-30T12:49:28;9.60;;;2.08;;
78489;SDS011;67776;52.012;4.736;2024-01-30T12:51:54;13.43;;;2.00;;
78489;SDS011;67776;52.012;4.736;2024-01-30T12:54:19;11.50;;;2.10;;
78489;SDS011;67776;52.012;4.736;2024-01-30T12:56:44;9.20;;;2.27;;
78489;SDS011;67776;52.012;4.736;2024-01-30T12:59:10;6.80;;;1.83;;
78489;SDS011;67776;52.012;4.736;2024-01-30T13:01:35;7.32;;;2.22;;
78489;SDS011;67776;52.012;4.736;2024-01-30T13:04:01;4.87;;;2.00;;
78489;SDS011;67776;52.012;4.736;2024-01-30T13:06:26;9.47;;;1.97;;
78489;SDS011;67776;52.012;4.736;2024-01-30T13:08:52;8.32;;;1.98;;
78489;SDS011;67776;52.012;4.736;2024-01-30T13:11:17;10.17;;;2.30;;
78489;SDS011;67776;52.012;4.736;2024-01-30T13:13:43;11.73;;;2.20;;
78489;SDS011;67776;52.012;4.736;2024-01-30T13:16:08;12.85;;;2.83;;
78489;SDS011;67776;52.012;4.736;2024-01-30T13:18:33;10.00;;;2.10;;
78489;SDS011;67776;52.012;4.736;2024-01-30T13:20:59;7.93;;;2.30;;
78489;SDS011;67776;52.012;4.736;2024-01-30T13:23:25;8.10;;;2.30;;
78489;SDS011;67776;52.012;4.736;2024-01-30T13:25:50;10.83;;;2.50;;
78489;SDS011;67776;52.012;4.736;2024-01-30T13:28:15;13.23;;;3.00;;
78489;SDS011;67776;52.012;4.736;2024-01-30T13:30:41;8.97;;;2.10;;
78489;SDS011;67776;52.012;4.736;2024-01-30T13:33:06;10.00;;;2.23;;
78489;SDS011;67776;52.012;4.736;2024-01-30T13:35:34;9.63;;;2.10;;
78489;SDS011;67776;52.012;4.736;2024-01-30T13:37:59;11.43;;;2.40;;
78489;SDS011;67776;52.012;4.736;2024-01-30T13:40:25;8.77;;;2.60;;
78489;SDS011;67776;52.012;4.736;2024-01-30T13:42:50;7.88;;;2.17;;
78489;SDS011;67776;52.012;4.736;2024-01-30T13:45:16;8.17;;;2.50;;
78489;SDS011;67776;52.012;4.736;2024-01-30T13:47:41;9.20;;;2.23;;
78489;SDS011;67776;52.012;4.736;2024-01-30T13:50:06;11.23;;;2.30;;
78489;SDS011;67776;52.012;4.736;2024-01-30T13:52:32;11.07;;;2.90;;
78489;SDS011;67776;52.012;4.736;2024-01-30T13:54:58;8.00;;;2.40;;
78489;SDS011;67776;52.012;4.736;2024-01-30T13:57:23;11.10;;;3.00;;
78489;SDS011;67776;52.012;4.736;2024-01-30T13:59:49;7.27;;;2.80;;
78489;SDS011;67776;52.012;4.736;2024-01-30T14:02:14;10.33;;;3.30;;
78489;SDS011;67776;52.012;4.736;2024-01-30T14:04:39;12.53;;;3.30;;
78489;SDS011;67776;52.012;4.736;2024-01-30T14:07:05;7.33;;;2.70;;
78489;SDS011;67776;52.012;4.736;2024-01-30T14:09:31;7.28;;;3.00;;
78489;SDS011;67776;52.012;4.736;2024-01-30T14:11:57;7.70;;;2.80;;
78489;SDS011;67776;52.012;4.736;2024-01-30T14:14:23;10.35;;;3.38;;
78489;SDS011;67776;52.012;4.736;2024-01-30T14:16:48;11.43;;;3.37;;
78489;SDS011;67776;52.012;4.736;2024-01-30T14:19:14;8.50;;;3.47;;
78489;SDS011;67776;52.012;4.736;2024-01-30T14:21:39;10.37;;;4.20;;